x

Eel River - 17nm Wsw Of Eureka, Ca (46022) Wave Buoy

5:50pm - Wed 28th Sep 2016 All times are PDT. -7 hours from GMT.

  • Sig Wave height 8.5ft
  • Swell Direction
  • Peak Period 8s
  • Average Period 7s
  • Wind
    9mph, 11mph gusts
  • Sea Temp 53°f
  • Air Temp 54°f
  • Sea Pressure 1015.4mb
  • Eel River - 17nm Wsw Of Eureka, Ca
  • Eel River - 17nm Wsw Of Eureka, Ca

More Historic Weather Station data

Upgrade to MSW Pro to gain access to the past 30 days of data for over 8000 Wavebouys and Weather Stations around the globe.

Join Pro

Comparision Forecast

View Surf forecast
   
Wed 09/28 5:50pm 8.5ft 8s 7s 9 11 mph 1015.4mb 53f 54f
4:50pm 9ft 9s 7s 13 16 mph 1015.2mb 52f 54f
3:50pm 8ft 8s 7s 13 18 mph 1015.3mb 52f 54f
2:50pm 9.5ft 9s 7s 18 22 mph 1015.2mb 52f 53f
1:50pm 8.5ft 9s 6s 20 22 mph 1015.1mb 52f 53f
12:50pm 8ft 9s 6s 22 27 mph 1014.8mb 52f 53f
11:50am 8ft 9s 7s 20 22 mph 1014.6mb 52f 53f
10:50am 8ft 9s 7s 13 16 mph 1014.7mb 52f 52f
9:50am 9ft 9s 7s 18 22 mph 1014.5mb 52f 52f
8:50am 9ft 9s 7s 16 18 mph 1014.3mb 52f 51f
7:50am 9ft 9s 7s 16 18 mph 1014.2mb 52f 51f
6:50am 9.5ft 9s 7s 18 22 mph 1013.9mb 52f 52f
5:50am 9.5ft 9s 7s 22 27 mph 1013.4mb 53f 52f
4:50am 9ft 9s 7s 20 25 mph 1013.5mb 52f 52f
3:50am 10.5ft 9s 7s 16 20 mph 1013.9mb 53f 53f
2:50am 10ft 9s 7s 16 20 mph 1014.2mb 53f 54f
1:50am 10ft 9s 7s 16 20 mph 1014.4mb 53f 55f
12:50am 10ft 9s 7s 13 18 mph 1014.6mb 53f 55f
Tue 09/27 11:50pm 10.5ft 9s 7s 11 13 mph 1014.6mb 53f 55f
10:50pm 8.5ft 8s 7s 13 18 mph 1014.6mb 53f 55f
9:50pm 9ft 9s 7s 13 16 mph 1014.5mb 53f 55f
8:50pm 8.5ft 8s 7s 9 11 mph 1014.5mb 53f 55f
7:50pm 7.5ft 8s 7s 9 11 mph 1014.2mb 53f 55f
6:50pm 6.5ft 8s 6s 11 13 mph 1014.1mb 54f 56f
5:50pm 7ft 8s 7s 11 13 mph 1013.9mb 54f 56f
4:50pm 6.5ft 8s 6s 9 11 mph 1013.8mb 54f 56f
3:50pm 6.5ft 8s 6s 11
mph
1014mb 53f 56f
2:50pm 7ft 8s 7s 13 16 mph 1013.9mb 53f 55f
1:50pm 6ft 7s 6s 7 11 mph 1014.1mb 53f 54f
12:50pm 6.5ft 8s 7s 9 11 mph 1014.3mb 53f 53f
11:50am 7ft 8s 7s 11 13 mph 1014.6mb 53f 54f
10:50am 7ft 7s 7s 11 16 mph 1014.9mb 53f 54f
9:50am 6.5ft 7s 6s 13 16 mph 1015.1mb 53f 53f
8:50am 6ft 7s 6s 11 13 mph 1015.2mb 53f 52f
7:50am 6.5ft 7s 6s 18 22 mph 1015mb 53f 53f
6:50am 7ft 7s 6s 13 16 mph 1015.2mb 53f 53f
5:50am 7ft 7s 6s 22 27 mph 1015mb 53f 53f
4:50am 7ft 8s 6s 18 22 mph 1015.3mb 53f 54f
3:50am 7ft 8s 6s 13 18 mph 1015.5mb 53f 54f
2:50am 6.5ft 8s 6s 13 16 mph 1015.8mb 53f 55f
1:50am 7ft 7s 7s 11 13 mph 1016.3mb 54f 55f
12:50am 6ft 8s 7s 16 20 mph 1016.6mb 54f 55f
Mon 09/26 11:50pm 6ft 11s 7s 11 16 mph 1016.8mb 54f 55f
10:50pm 5.5ft 10s 6s 4 7 mph 1016.9mb 54f 53f
9:50pm 5.5ft 10s 6s 9 11 mph 1016.9mb 54f 54f
8:50pm 5ft 6s 6s 11 16 mph 1016.6mb 54f 55f
7:50pm 5ft 6s 6s 11 16 mph 1016.4mb 54f 55f
6:50pm 5ft 6s 6s 13 16 mph 1016.2mb 53f 56f
5:50pm 5ft 6s 6s 16 20 mph 1016.3mb 54f 55f
4:50pm 5ft 10s 6s 18 20 mph 1016.4mb 54f 55f
3:50pm 5ft 6s 6s 11 13 mph 1016.7mb 54f 56f
2:50pm 6ft 6s 6s 13 16 mph 1016.8mb 54f 56f
1:50pm 5ft 10s 6s 13 16 mph 1016.9mb 54f 56f
12:50pm 5ft 11s 7s 11 13 mph 1016.8mb 54f 56f
11:50am 5ft 15s 6s 11 13 mph 1016.6mb 54f 56f
10:50am 5ft 6s 6s 9 11 mph 1016.2mb 54f 55f
9:50am 5ft 7s 6s 4 7 mph 1015.8mb 53f 55f
8:50am 4.5ft 6s 6s 7
mph
1015.4mb 53f 55f
7:50am 5ft 8s 7s 9 11 mph 1014.8mb 53f 55f
6:50am 5ft 7s 7s 11 13 mph 1014.4mb 53f 55f
5:50am 5ft 8s 6s 4
mph
1014.1mb 54f 54f
4:50am 5ft 7s 6s 7 9 mph 1014mb 53f 55f
3:50am 5.5ft 8s 7s 9
mph
1014.1mb 53f 55f
2:50am 5.5ft 7s 7s 9
mph
1014.4mb 53f 55f
1:50am 5.5ft 8s 6s 4 7 mph 1014.8mb 53f 55f
12:50am 5ft 7s 6s  -  2 mph 1014.9mb 53f 55f
Sun 09/25 11:50pm 5ft 7s 6s 7 9 mph 1015mb 53f 55f
10:50pm 5.5ft 7s 6s 9
mph
1015.2mb 54f 56f
9:50pm 4.5ft 7s 6s 7 9 mph 1015.4mb 54f 56f
8:50pm 4.5ft 7s 6s 2 4 mph 1015.7mb 54f 56f
7:50pm 4.5ft 16s 6s 2 7 mph 1015.8mb 55f 57f
6:50pm 5ft 16s 6s 7
mph
1015.9mb 56f 59f
5:50pm 5ft 6s 6s 2 4 mph 1016.1mb 56f 60f
4:50pm 5ft 7s 6s  -  2 mph 1016.4mb 56f 58f
3:50pm 5ft 16s 6s 2 4 mph 1016.9mb 55f 58f
2:50pm 5.5ft 6s 6s 4 7 mph 1017.3mb 55f 57f
1:50pm 5ft 16s 6s 7 9 mph 1017.9mb 54f 56f
12:50pm 5ft 7s 6s 9 16 mph 1018.2mb 54f 56f
11:50am 5.5ft 16s 7s 7
mph
1018.8mb 53f 54f
10:50am 6ft 7s 7s 7 9 mph 1019.3mb 53f 53f
9:50am 5.5ft 7s 6s 9 11 mph 1019.6mb 53f 53f
8:50am 5ft 7s 6s 11 13 mph 1019.7mb 53f 53f
7:50am 5.5ft 7s 7s 9 11 mph 1019.7mb 53f 50f
6:50am 6ft 7s 7s 11 13 mph 1019.5mb 53f 50f
5:50am 6ft 7s 6s 9 11 mph 1020mb 53f 50f
4:50am 5.5ft 7s 6s 9 11 mph 1020.5mb 53f 52f
3:50am 6ft 7s 6s 11 13 mph 1021.3mb 53f 52f
2:50am 6ft 17s 7s 7 9 mph 1022mb 53f 54f